Winnemucca Municipal Airport
KWMC : rendu visible

Aérodrome :











RETROUVEZ-NOUS SUR...

 
LOGIN :

S'inscrire | Disclaimer

   EN    FR    IT 

 









Légende :    VFR   VFR Marginal   IFR   IFR Intensif   IFR Très Intensif
Visi : 
Plafond : 
>= 8 km
>= 3000ft
5 à 8 km
1000 à 3000 ft
1500m à 5 km
500 à 1000 ft
800 à 1500m
200 à 500 ft
< 800m
< 200 ft
Symboles :   Orages  Brouillard  Fortes neiges  Fortes précipitations  Vent > 20 kt






- Altitude de l'aérodrome : 4308 ft


KWMC - Winnemucca Municipal

DERNIER METAR :
  • 192056Z AUTO 02011KT 10SM CLR 06/M14 A3025 RMK AO2 SLP256 T00611144 58011

METARs EXPIRÉS :
  • 191956Z AUTO 03015KT 10SM CLR 05/M14 A3027 RMK AO2 SLP265 T00501139
  • 191856Z AUTO 04010KT 10SM CLR 03/M13 A3029 RMK AO2 SLP272 T00331128

TAF KWMC
Valide du 19 à 18h jusqu'au 20 à 18h UTC


191720Z 1918/2018 04010KT P6SM FEW120



MET'MAP, la Météo Aéronautique d'un coup d'oeil ! - Copyright ORBIFLY Décembre 2007 - Disclaimer

ORBIFLY MET'MAP TEAM :

Programmation & Développement : Alexandra Zaïnal
Sur une idée originale de : Baudouin d'Aumeries
Assistance à la programmation : Marc-Olivier Méhu
Soutien technique & logistique : Manuel Goepfert

Contact : metmap@orbifly.com




SOURCES & CREDITS :

   NOAA       Earth
Advisory